sensor_id;sensor_type;location;lat;lon;timestamp;P1;durP1;ratioP1;P2;durP2;ratioP2
10063;SDS011;5071;52.360;13.134;2023-01-25T00:03:13;22.57;;;10.30;;
10063;SDS011;5071;52.360;13.134;2023-01-25T00:08:15;22.63;;;10.37;;
10063;SDS011;5071;52.360;13.134;2023-01-25T00:13:19;20.67;;;9.70;;
10063;SDS011;5071;52.360;13.134;2023-01-25T00:18:21;22.43;;;10.07;;
10063;SDS011;5071;52.360;13.134;2023-01-25T00:23:23;25.57;;;9.80;;
10063;SDS011;5071;52.360;13.134;2023-01-25T00:28:27;27.40;;;10.27;;
10063;SDS011;5071;52.360;13.134;2023-01-25T00:33:34;27.17;;;9.87;;
10063;SDS011;5071;52.360;13.134;2023-01-25T00:38:45;22.57;;;10.53;;
10063;SDS011;5071;52.360;13.134;2023-01-25T00:43:49;18.93;;;9.07;;
10063;SDS011;5071;52.360;13.134;2023-01-25T00:48:52;23.47;;;9.93;;
10063;SDS011;5071;52.360;13.134;2023-01-25T00:53:55;23.67;;;10.43;;
10063;SDS011;5071;52.360;13.134;2023-01-25T00:58:58;21.73;;;10.23;;
10063;SDS011;5071;52.360;13.134;2023-01-25T01:04:01;22.27;;;9.47;;
10063;SDS011;5071;52.360;13.134;2023-01-25T01:09:07;24.30;;;10.23;;
10063;SDS011;5071;52.360;13.134;2023-01-25T01:14:14;22.50;;;9.50;;
10063;SDS011;5071;52.360;13.134;2023-01-25T01:19:16;21.67;;;10.00;;
10063;SDS011;5071;52.360;13.134;2023-01-25T01:24:19;23.80;;;10.20;;
10063;SDS011;5071;52.360;13.134;2023-01-25T01:29:23;18.70;;;9.37;;
10063;SDS011;5071;52.360;13.134;2023-01-25T01:34:25;23.17;;;10.90;;
10063;SDS011;5071;52.360;13.134;2023-01-25T01:39:27;22.43;;;9.83;;
10063;SDS011;5071;52.360;13.134;2023-01-25T01:44:47;18.50;;;8.97;;
10063;SDS011;5071;52.360;13.134;2023-01-25T01:49:50;17.93;;;9.87;;
10063;SDS011;5071;52.360;13.134;2023-01-25T01:54:55;26.70;;;10.33;;
10063;SDS011;5071;52.360;13.134;2023-01-25T02:00:03;22.30;;;9.43;;
10063;SDS011;5071;52.360;13.134;2023-01-25T02:05:10;18.90;;;9.47;;
10063;SDS011;5071;52.360;13.134;2023-01-25T02:10:20;20.83;;;10.40;;
10063;SDS011;5071;52.360;13.134;2023-01-25T02:15:27;21.50;;;9.63;;
10063;SDS011;5071;52.360;13.134;2023-01-25T02:20:35;17.90;;;9.03;;
10063;SDS011;5071;52.360;13.134;2023-01-25T02:25:41;20.63;;;10.37;;
10063;SDS011;5071;52.360;13.134;2023-01-25T02:30:44;17.40;;;8.87;;
10063;SDS011;5071;52.360;13.134;2023-01-25T02:35:47;17.70;;;8.73;;
10063;SDS011;5071;52.360;13.134;2023-01-25T02:40:53;23.50;;;10.23;;
10063;SDS011;5071;52.360;13.134;2023-01-25T02:46:01;19.90;;;9.60;;
10063;SDS011;5071;52.360;13.134;2023-01-25T02:51:11;19.73;;;9.00;;
10063;SDS011;5071;52.360;13.134;2023-01-25T02:56:15;21.70;;;10.10;;
10063;SDS011;5071;52.360;13.134;2023-01-25T03:01:18;21.10;;;8.63;;
10063;SDS011;5071;52.360;13.134;2023-01-25T03:06:21;19.30;;;9.07;;
10063;SDS011;5071;52.360;13.134;2023-01-25T03:11:25;20.17;;;9.20;;
10063;SDS011;5071;52.360;13.134;2023-01-25T03:16:29;22.33;;;10.13;;
10063;SDS011;5071;52.360;13.134;2023-01-25T03:21:32;19.53;;;9.07;;
10063;SDS011;5071;52.360;13.134;2023-01-25T03:26:35;23.07;;;8.57;;
10063;SDS011;5071;52.360;13.134;2023-01-25T03:31:37;19.77;;;9.87;;
10063;SDS011;5071;52.360;13.134;2023-01-25T03:36:40;18.00;;;8.83;;
10063;SDS011;5071;52.360;13.134;2023-01-25T03:41:43;14.73;;;8.07;;
10063;SDS011;5071;52.360;13.134;2023-01-25T03:46:45;20.73;;;9.80;;
10063;SDS011;5071;52.360;13.134;2023-01-25T03:51:48;16.47;;;9.27;;
10063;SDS011;5071;52.360;13.134;2023-01-25T03:56:51;25.13;;;10.63;;
10063;SDS011;5071;52.360;13.134;2023-01-25T04:01:53;24.77;;;10.30;;
10063;SDS011;5071;52.360;13.134;2023-01-25T04:06:56;22.40;;;10.93;;
10063;SDS011;5071;52.360;13.134;2023-01-25T04:11:59;19.80;;;9.53;;
10063;SDS011;5071;52.360;13.134;2023-01-25T04:17:02;18.43;;;9.73;;
10063;SDS011;5071;52.360;13.134;2023-01-25T04:22:04;20.93;;;10.03;;
10063;SDS011;5071;52.360;13.134;2023-01-25T04:27:08;23.20;;;10.47;;
10063;SDS011;5071;52.360;13.134;2023-01-25T04:32:10;20.57;;;10.13;;
10063;SDS011;5071;52.360;13.134;2023-01-25T04:37:12;20.30;;;10.63;;
10063;SDS011;5071;52.360;13.134;2023-01-25T04:42:16;26.27;;;9.83;;
10063;SDS011;5071;52.360;13.134;2023-01-25T04:47:18;24.23;;;10.93;;
10063;SDS011;5071;52.360;13.134;2023-01-25T04:52:20;21.97;;;10.13;;
10063;SDS011;5071;52.360;13.134;2023-01-25T04:57:24;20.13;;;9.73;;
10063;SDS011;5071;52.360;13.134;2023-01-25T05:02:26;20.13;;;10.80;;
10063;SDS011;5071;52.360;13.134;2023-01-25T05:07:28;25.83;;;11.10;;
10063;SDS011;5071;52.360;13.134;2023-01-25T05:12:32;24.60;;;10.80;;
10063;SDS011;5071;52.360;13.134;2023-01-25T05:17:33;23.43;;;11.50;;
10063;SDS011;5071;52.360;13.134;2023-01-25T05:22:36;23.63;;;10.97;;
10063;SDS011;5071;52.360;13.134;2023-01-25T05:27:39;20.23;;;10.23;;
10063;SDS011;5071;52.360;13.134;2023-01-25T05:32:41;23.10;;;10.33;;
10063;SDS011;5071;52.360;13.134;2023-01-25T05:37:43;23.23;;;9.57;;
10063;SDS011;5071;52.360;13.134;2023-01-25T05:42:52;26.13;;;10.40;;
10063;SDS011;5071;52.360;13.134;2023-01-25T05:47:56;21.23;;;9.77;;
10063;SDS011;5071;52.360;13.134;2023-01-25T05:52:58;16.20;;;8.60;;
10063;SDS011;5071;52.360;13.134;2023-01-25T05:58:02;21.83;;;9.63;;
10063;SDS011;5071;52.360;13.134;2023-01-25T06:03:03;14.20;;;7.03;;
10063;SDS011;5071;52.360;13.134;2023-01-25T06:08:06;9.20;;;5.03;;
10063;SDS011;5071;52.360;13.134;2023-01-25T06:13:09;12.07;;;6.40;;
10063;SDS011;5071;52.360;13.134;2023-01-25T06:18:12;13.27;;;7.17;;
10063;SDS011;5071;52.360;13.134;2023-01-25T06:23:14;15.70;;;8.13;;
10063;SDS011;5071;52.360;13.134;2023-01-25T06:28:17;11.40;;;6.30;;
10063;SDS011;5071;52.360;13.134;2023-01-25T06:33:19;17.07;;;8.27;;
10063;SDS011;5071;52.360;13.134;2023-01-25T06:38:21;14.47;;;7.70;;
10063;SDS011;5071;52.360;13.134;2023-01-25T06:43:25;17.53;;;7.43;;
10063;SDS011;5071;52.360;13.134;2023-01-25T06:48:27;13.77;;;7.17;;
10063;SDS011;5071;52.360;13.134;2023-01-25T06:53:31;16.63;;;7.93;;
10063;SDS011;5071;52.360;13.134;2023-01-25T06:58:36;11.47;;;6.17;;
10063;SDS011;5071;52.360;13.134;2023-01-25T07:03:38;18.53;;;7.10;;
10063;SDS011;5071;52.360;13.134;2023-01-25T07:08:41;11.27;;;6.77;;
10063;SDS011;5071;52.360;13.134;2023-01-25T07:13:45;16.43;;;7.83;;
10063;SDS011;5071;52.360;13.134;2023-01-25T07:18:48;16.63;;;6.87;;
10063;SDS011;5071;52.360;13.134;2023-01-25T07:23:50;13.27;;;6.83;;
10063;SDS011;5071;52.360;13.134;2023-01-25T07:28:54;14.03;;;6.33;;
10063;SDS011;5071;52.360;13.134;2023-01-25T07:33:58;13.50;;;7.00;;
10063;SDS011;5071;52.360;13.134;2023-01-25T07:39:00;15.13;;;6.90;;
10063;SDS011;5071;52.360;13.134;2023-01-25T07:44:04;15.10;;;8.23;;
10063;SDS011;5071;52.360;13.134;2023-01-25T07:49:06;14.13;;;7.40;;
10063;SDS011;5071;52.360;13.134;2023-01-25T07:54:09;20.87;;;8.23;;
10063;SDS011;5071;52.360;13.134;2023-01-25T07:59:13;13.60;;;6.93;;
10063;SDS011;5071;52.360;13.134;2023-01-25T08:04:15;20.23;;;7.67;;
10063;SDS011;5071;52.360;13.134;2023-01-25T08:09:17;17.40;;;9.20;;
10063;SDS011;5071;52.360;13.134;2023-01-25T08:14:21;16.10;;;7.30;;
10063;SDS011;5071;52.360;13.134;2023-01-25T08:19:23;21.50;;;7.90;;
10063;SDS011;5071;52.360;13.134;2023-01-25T08:24:25;15.53;;;8.47;;
10063;SDS011;5071;52.360;13.134;2023-01-25T08:29:29;17.80;;;8.20;;
10063;SDS011;5071;52.360;13.134;2023-01-25T08:34:31;18.80;;;7.50;;
10063;SDS011;5071;52.360;13.134;2023-01-25T08:39:33;14.73;;;8.13;;
10063;SDS011;5071;52.360;13.134;2023-01-25T08:44:37;17.87;;;8.67;;
10063;SDS011;5071;52.360;13.134;2023-01-25T08:49:39;18.17;;;9.03;;
10063;SDS011;5071;52.360;13.134;2023-01-25T08:54:41;17.53;;;8.37;;
10063;SDS011;5071;52.360;13.134;2023-01-25T08:59:45;20.97;;;8.63;;
10063;SDS011;5071;52.360;13.134;2023-01-25T09:04:47;23.57;;;9.83;;
10063;SDS011;5071;52.360;13.134;2023-01-25T09:09:49;20.00;;;9.90;;
10063;SDS011;5071;52.360;13.134;2023-01-25T09:14:52;21.73;;;9.77;;
10063;SDS011;5071;52.360;13.134;2023-01-25T09:19:54;25.40;;;10.47;;
10063;SDS011;5071;52.360;13.134;2023-01-25T09:24:56;24.43;;;10.33;;
10063;SDS011;5071;52.360;13.134;2023-01-25T09:30:00;24.13;;;10.57;;
10063;SDS011;5071;52.360;13.134;2023-01-25T09:35:04;21.67;;;10.40;;
10063;SDS011;5071;52.360;13.134;2023-01-25T09:40:09;23.23;;;10.07;;
10063;SDS011;5071;52.360;13.134;2023-01-25T09:45:22;22.63;;;10.07;;
10063;SDS011;5071;52.360;13.134;2023-01-25T09:50:34;23.53;;;11.33;;
10063;SDS011;5071;52.360;13.134;2023-01-25T09:55:38;24.93;;;10.83;;
10063;SDS011;5071;52.360;13.134;2023-01-25T10:00:43;18.73;;;9.23;;
10063;SDS011;5071;52.360;13.134;2023-01-25T10:05:47;18.83;;;9.57;;
10063;SDS011;5071;52.360;13.134;2023-01-25T10:10:51;27.47;;;11.43;;
10063;SDS011;5071;52.360;13.134;2023-01-25T10:16:04;24.53;;;10.47;;
10063;SDS011;5071;52.360;13.134;2023-01-25T10:21:26;20.60;;;10.03;;
10063;SDS011;5071;52.360;13.134;2023-01-25T10:26:32;27.07;;;12.50;;
10063;SDS011;5071;52.360;13.134;2023-01-25T10:31:38;27.30;;;11.43;;
10063;SDS011;5071;52.360;13.134;2023-01-25T10:36:45;19.00;;;10.10;;
10063;SDS011;5071;52.360;13.134;2023-01-25T10:41:50;26.17;;;11.77;;
10063;SDS011;5071;52.360;13.134;2023-01-25T10:46:58;18.10;;;10.00;;
10063;SDS011;5071;52.360;13.134;2023-01-25T10:52:11;25.20;;;11.33;;
10063;SDS011;5071;52.360;13.134;2023-01-25T10:57:16;28.50;;;12.57;;
10063;SDS011;5071;52.360;13.134;2023-01-25T11:02:38;28.80;;;11.23;;
10063;SDS011;5071;52.360;13.134;2023-01-25T11:07:44;21.50;;;10.20;;
10063;SDS011;5071;52.360;13.134;2023-01-25T11:12:47;21.33;;;10.10;;
10063;SDS011;5071;52.360;13.134;2023-01-25T11:18:03;26.00;;;9.80;;
10063;SDS011;5071;52.360;13.134;2023-01-25T11:23:17;24.77;;;9.37;;
10063;SDS011;5071;52.360;13.134;2023-01-25T11:28:23;26.33;;;11.07;;
10063;SDS011;5071;52.360;13.134;2023-01-25T11:33:26;25.23;;;10.40;;
10063;SDS011;5071;52.360;13.134;2023-01-25T11:38:29;25.30;;;10.77;;
10063;SDS011;5071;52.360;13.134;2023-01-25T11:43:38;19.17;;;9.37;;
10063;SDS011;5071;52.360;13.134;2023-01-25T11:54:34;18.37;;;8.33;;
10063;SDS011;5071;52.360;13.134;2023-01-25T11:59:50;22.27;;;10.37;;
10063;SDS011;5071;52.360;13.134;2023-01-25T12:05:15;21.00;;;8.90;;
10063;SDS011;5071;52.360;13.134;2023-01-25T12:10:29;18.90;;;8.70;;
10063;SDS011;5071;52.360;13.134;2023-01-25T12:15:48;20.77;;;9.43;;
10063;SDS011;5071;52.360;13.134;2023-01-25T12:21:15;20.03;;;8.80;;
10063;SDS011;5071;52.360;13.134;2023-01-25T12:26:34;20.20;;;8.73;;
10063;SDS011;5071;52.360;13.134;2023-01-25T12:31:46;18.97;;;8.27;;
10063;SDS011;5071;52.360;13.134;2023-01-25T12:36:54;22.80;;;10.03;;
10063;SDS011;5071;52.360;13.134;2023-01-25T12:42:02;19.57;;;8.40;;
10063;SDS011;5071;52.360;13.134;2023-01-25T12:47:10;18.03;;;9.17;;
10063;SDS011;5071;52.360;13.134;2023-01-25T12:52:21;18.87;;;8.93;;
10063;SDS011;5071;52.360;13.134;2023-01-25T12:57:28;19.23;;;8.60;;
10063;SDS011;5071;52.360;13.134;2023-01-25T13:02:42;19.83;;;9.77;;
10063;SDS011;5071;52.360;13.134;2023-01-25T13:08:13;21.13;;;9.27;;
10063;SDS011;5071;52.360;13.134;2023-01-25T13:13:32;15.47;;;7.43;;
10063;SDS011;5071;52.360;13.134;2023-01-25T13:18:36;17.90;;;7.73;;
10063;SDS011;5071;52.360;13.134;2023-01-25T13:23:42;20.83;;;8.43;;
10063;SDS011;5071;52.360;13.134;2023-01-25T13:28:46;15.90;;;8.63;;
10063;SDS011;5071;52.360;13.134;2023-01-25T13:33:49;22.90;;;8.33;;
10063;SDS011;5071;52.360;13.134;2023-01-25T13:38:53;17.63;;;8.03;;
10063;SDS011;5071;52.360;13.134;2023-01-25T13:44:18;24.17;;;8.37;;
10063;SDS011;5071;52.360;13.134;2023-01-25T13:49:26;22.80;;;9.53;;
10063;SDS011;5071;52.360;13.134;2023-01-25T13:54:42;17.17;;;7.90;;
10063;SDS011;5071;52.360;13.134;2023-01-25T13:59:44;19.67;;;8.13;;
10063;SDS011;5071;52.360;13.134;2023-01-25T14:04:47;15.37;;;8.97;;
10063;SDS011;5071;52.360;13.134;2023-01-25T14:09:53;16.53;;;7.87;;
10063;SDS011;5071;52.360;13.134;2023-01-25T14:14:57;15.43;;;7.97;;
10063;SDS011;5071;52.360;13.134;2023-01-25T14:20:18;15.60;;;7.73;;
10063;SDS011;5071;52.360;13.134;2023-01-25T14:25:24;18.40;;;8.40;;
10063;SDS011;5071;52.360;13.134;2023-01-25T14:30:27;22.30;;;10.00;;
10063;SDS011;5071;52.360;13.134;2023-01-25T14:35:32;22.67;;;9.17;;
10063;SDS011;5071;52.360;13.134;2023-01-25T14:40:52;18.70;;;8.17;;
10063;SDS011;5071;52.360;13.134;2023-01-25T14:45:58;19.47;;;8.10;;
10063;SDS011;5071;52.360;13.134;2023-01-25T14:51:24;15.70;;;6.47;;
10063;SDS011;5071;52.360;13.134;2023-01-25T14:56:32;14.57;;;7.00;;
10063;SDS011;5071;52.360;13.134;2023-01-25T15:01:41;21.70;;;8.23;;
10063;SDS011;5071;52.360;13.134;2023-01-25T15:06:45;14.43;;;7.10;;
10063;SDS011;5071;52.360;13.134;2023-01-25T15:11:49;16.60;;;7.97;;
10063;SDS011;5071;52.360;13.134;2023-01-25T15:17:00;13.80;;;7.13;;
10063;SDS011;5071;52.360;13.134;2023-01-25T15:22:03;16.57;;;7.07;;
10063;SDS011;5071;52.360;13.134;2023-01-25T15:27:10;20.70;;;7.77;;
10063;SDS011;5071;52.360;13.134;2023-01-25T15:32:15;19.53;;;7.60;;
10063;SDS011;5071;52.360;13.134;2023-01-25T15:37:20;19.83;;;7.63;;
10063;SDS011;5071;52.360;13.134;2023-01-25T15:42:24;20.20;;;7.90;;
10063;SDS011;5071;52.360;13.134;2023-01-25T15:47:26;23.13;;;9.90;;
10063;SDS011;5071;52.360;13.134;2023-01-25T15:52:29;22.30;;;8.03;;
10063;SDS011;5071;52.360;13.134;2023-01-25T15:57:33;19.10;;;8.67;;
10063;SDS011;5071;52.360;13.134;2023-01-25T16:02:37;25.03;;;7.90;;
10063;SDS011;5071;52.360;13.134;2023-01-25T16:07:39;22.50;;;8.30;;
10063;SDS011;5071;52.360;13.134;2023-01-25T16:12:46;16.80;;;9.03;;
10063;SDS011;5071;52.360;13.134;2023-01-25T16:17:48;22.77;;;8.53;;
10063;SDS011;5071;52.360;13.134;2023-01-25T16:22:51;22.53;;;8.73;;
10063;SDS011;5071;52.360;13.134;2023-01-25T16:27:54;20.30;;;7.67;;
10063;SDS011;5071;52.360;13.134;2023-01-25T16:32:56;19.90;;;7.40;;
10063;SDS011;5071;52.360;13.134;2023-01-25T16:37:58;22.53;;;8.00;;
10063;SDS011;5071;52.360;13.134;2023-01-25T16:43:02;18.77;;;8.07;;
10063;SDS011;5071;52.360;13.134;2023-01-25T16:48:04;22.33;;;9.13;;
10063;SDS011;5071;52.360;13.134;2023-01-25T16:53:07;23.53;;;9.13;;
10063;SDS011;5071;52.360;13.134;2023-01-25T16:58:11;23.40;;;8.20;;
10063;SDS011;5071;52.360;13.134;2023-01-25T17:03:12;16.47;;;6.60;;
10063;SDS011;5071;52.360;13.134;2023-01-25T17:08:14;20.43;;;7.63;;
10063;SDS011;5071;52.360;13.134;2023-01-25T17:13:18;16.73;;;7.53;;
10063;SDS011;5071;52.360;13.134;2023-01-25T17:18:20;16.03;;;6.97;;
10063;SDS011;5071;52.360;13.134;2023-01-25T17:23:22;19.47;;;7.83;;
10063;SDS011;5071;52.360;13.134;2023-01-25T17:28:26;19.13;;;7.60;;
10063;SDS011;5071;52.360;13.134;2023-01-25T17:33:27;17.77;;;6.90;;
10063;SDS011;5071;52.360;13.134;2023-01-25T17:38:30;16.43;;;7.40;;
10063;SDS011;5071;52.360;13.134;2023-01-25T17:43:33;18.83;;;7.63;;
10063;SDS011;5071;52.360;13.134;2023-01-25T17:48:35;18.40;;;6.23;;
10063;SDS011;5071;52.360;13.134;2023-01-25T17:53:38;15.90;;;6.60;;
10063;SDS011;5071;52.360;13.134;2023-01-25T17:58:41;15.97;;;6.37;;
10063;SDS011;5071;52.360;13.134;2023-01-25T18:03:44;17.03;;;7.27;;
10063;SDS011;5071;52.360;13.134;2023-01-25T18:08:55;20.13;;;7.40;;
10063;SDS011;5071;52.360;13.134;2023-01-25T18:14:07;15.67;;;6.80;;
10063;SDS011;5071;52.360;13.134;2023-01-25T18:19:11;14.60;;;6.60;;
10063;SDS011;5071;52.360;13.134;2023-01-25T18:24:25;19.13;;;6.70;;
10063;SDS011;5071;52.360;13.134;2023-01-25T18:29:34;26.07;;;8.70;;
10063;SDS011;5071;52.360;13.134;2023-01-25T18:34:44;19.03;;;7.07;;
10063;SDS011;5071;52.360;13.134;2023-01-25T18:39:48;19.77;;;7.77;;
10063;SDS011;5071;52.360;13.134;2023-01-25T18:44:52;18.03;;;8.03;;
10063;SDS011;5071;52.360;13.134;2023-01-25T18:49:54;21.97;;;7.57;;
10063;SDS011;5071;52.360;13.134;2023-01-25T18:54:56;17.73;;;6.87;;
10063;SDS011;5071;52.360;13.134;2023-01-25T19:00:00;15.67;;;6.33;;
10063;SDS011;5071;52.360;13.134;2023-01-25T19:05:03;18.63;;;7.17;;
10063;SDS011;5071;52.360;13.134;2023-01-25T19:10:05;19.40;;;8.03;;
10063;SDS011;5071;52.360;13.134;2023-01-25T19:15:10;17.37;;;7.37;;
10063;SDS011;5071;52.360;13.134;2023-01-25T19:20:12;16.47;;;6.23;;
10063;SDS011;5071;52.360;13.134;2023-01-25T19:25:14;15.07;;;6.10;;
10063;SDS011;5071;52.360;13.134;2023-01-25T19:30:17;14.10;;;7.00;;
10063;SDS011;5071;52.360;13.134;2023-01-25T19:35:19;21.23;;;8.97;;
10063;SDS011;5071;52.360;13.134;2023-01-25T19:40:22;16.90;;;6.67;;
10063;SDS011;5071;52.360;13.134;2023-01-25T19:45:25;20.13;;;7.33;;
10063;SDS011;5071;52.360;13.134;2023-01-25T19:50:27;16.77;;;7.43;;
10063;SDS011;5071;52.360;13.134;2023-01-25T19:55:30;14.17;;;6.30;;
10063;SDS011;5071;52.360;13.134;2023-01-25T20:00:33;18.00;;;7.63;;
10063;SDS011;5071;52.360;13.134;2023-01-25T20:05:35;14.73;;;6.40;;
10063;SDS011;5071;52.360;13.134;2023-01-25T20:10:37;16.77;;;6.37;;
10063;SDS011;5071;52.360;13.134;2023-01-25T20:15:45;13.30;;;6.50;;
10063;SDS011;5071;52.360;13.134;2023-01-25T20:20:54;15.27;;;7.13;;
10063;SDS011;5071;52.360;13.134;2023-01-25T20:25:57;15.80;;;6.40;;
10063;SDS011;5071;52.360;13.134;2023-01-25T20:31:02;19.37;;;7.17;;
10063;SDS011;5071;52.360;13.134;2023-01-25T20:36:05;17.27;;;7.83;;
10063;SDS011;5071;52.360;13.134;2023-01-25T20:41:08;17.27;;;7.33;;
10063;SDS011;5071;52.360;13.134;2023-01-25T20:46:13;14.80;;;7.10;;
10063;SDS011;5071;52.360;13.134;2023-01-25T20:51:16;13.53;;;6.30;;
10063;SDS011;5071;52.360;13.134;2023-01-25T20:56:18;16.17;;;6.63;;
10063;SDS011;5071;52.360;13.134;2023-01-25T21:01:22;17.13;;;6.43;;
10063;SDS011;5071;52.360;13.134;2023-01-25T21:06:26;12.10;;;6.50;;
10063;SDS011;5071;52.360;13.134;2023-01-25T21:11:32;15.97;;;7.37;;
10063;SDS011;5071;52.360;13.134;2023-01-25T21:16:35;15.43;;;5.67;;
10063;SDS011;5071;52.360;13.134;2023-01-25T21:21:37;12.93;;;5.77;;
10063;SDS011;5071;52.360;13.134;2023-01-25T21:26:39;17.50;;;6.00;;
10063;SDS011;5071;52.360;13.134;2023-01-25T21:31:42;18.63;;;7.67;;
10063;SDS011;5071;52.360;13.134;2023-01-25T21:36:50;14.93;;;6.07;;
10063;SDS011;5071;52.360;13.134;2023-01-25T21:41:53;12.97;;;6.40;;
10063;SDS011;5071;52.360;13.134;2023-01-25T21:46:56;17.27;;;6.57;;
10063;SDS011;5071;52.360;13.134;2023-01-25T21:52:18;15.00;;;6.80;;
10063;SDS011;5071;52.360;13.134;2023-01-25T21:57:20;16.50;;;6.57;;
10063;SDS011;5071;52.360;13.134;2023-01-25T22:02:24;14.80;;;6.27;;
10063;SDS011;5071;52.360;13.134;2023-01-25T22:07:26;12.83;;;5.67;;
10063;SDS011;5071;52.360;13.134;2023-01-25T22:12:27;12.60;;;7.27;;
10063;SDS011;5071;52.360;13.134;2023-01-25T22:17:30;17.70;;;6.77;;
10063;SDS011;5071;52.360;13.134;2023-01-25T22:22:32;17.57;;;5.90;;
10063;SDS011;5071;52.360;13.134;2023-01-25T22:27:40;15.97;;;7.70;;
10063;SDS011;5071;52.360;13.134;2023-01-25T22:32:47;15.30;;;6.83;;
10063;SDS011;5071;52.360;13.134;2023-01-25T22:37:50;13.50;;;6.73;;
10063;SDS011;5071;52.360;13.134;2023-01-25T22:42:51;13.43;;;5.90;;
10063;SDS011;5071;52.360;13.134;2023-01-25T22:47:55;12.87;;;6.10;;
10063;SDS011;5071;52.360;13.134;2023-01-25T22:52:57;12.33;;;5.90;;
10063;SDS011;5071;52.360;13.134;2023-01-25T22:57:59;12.90;;;7.07;;
10063;SDS011;5071;52.360;13.134;2023-01-25T23:03:02;11.23;;;6.40;;
10063;SDS011;5071;52.360;13.134;2023-01-25T23:08:05;15.83;;;6.73;;
10063;SDS011;5071;52.360;13.134;2023-01-25T23:13:07;14.20;;;6.53;;
10063;SDS011;5071;52.360;13.134;2023-01-25T23:18:10;16.33;;;6.70;;
10063;SDS011;5071;52.360;13.134;2023-01-25T23:23:12;14.27;;;6.40;;
10063;SDS011;5071;52.360;13.134;2023-01-25T23:28:15;14.40;;;6.10;;
10063;SDS011;5071;52.360;13.134;2023-01-25T23:33:18;14.40;;;6.33;;
10063;SDS011;5071;52.360;13.134;2023-01-25T23:38:20;14.70;;;7.47;;
10063;SDS011;5071;52.360;13.134;2023-01-25T23:43:22;13.80;;;6.47;;
10063;SDS011;5071;52.360;13.134;2023-01-25T23:48:26;12.10;;;6.03;;
10063;SDS011;5071;52.360;13.134;2023-01-25T23:53:29;17.30;;;6.40;;
10063;SDS011;5071;52.360;13.134;2023-01-25T23:58:31;11.47;;;6.43;;
